Time;durP1;ratioP1;P1;durP2;ratioP2;P2;SDS_P1;SDS_P2;PMS_P1;PMS_P2;Temp;Humidity;BMP_temperature;BMP_pressure;BME280_temperature;BME280_humidity;BME280_pressure;Samples;Min_cycle;Max_cycle;Signal;HPM_P1;HPM_P2
2022/08/09 00:02:20;;;;;;;5.53;3.20;;;;;;;18.60;52.93;102048.50;5086022;27;20044;-68
2022/08/09 00:04:46;;;;;;;6.53;2.97;;;;;;;18.60;53.39;102048.50;5084703;28;20064;-68
2022/08/09 00:07:12;;;;;;;5.47;2.92;;;;;;;18.52;53.35;102049.00;5085150;27;20093;-68
2022/08/09 00:09:39;;;;;;;4.35;3.22;;;;;;;18.38;54.51;102044.53;5085136;27;20415;-68
2022/08/09 00:12:06;;;;;;;6.05;3.50;;;;;;;18.27;54.57;102046.16;5083310;27;20044;-68
2022/08/09 00:14:34;;;;;;;4.80;3.38;;;;;;;18.49;54.85;102054.47;5084535;27;20044;-68
2022/08/09 00:17:01;;;;;;;7.47;3.60;;;;;;;18.48;54.89;102056.28;5098821;27;20080;-68
2022/08/09 00:19:28;;;;;;;5.00;2.90;;;;;;;18.33;55.25;102057.25;5082423;28;20052;-68
2022/08/09 00:21:54;;;;;;;5.13;3.05;;;;;;;18.26;55.69;102063.91;5084172;28;20089;-68
2022/08/09 00:24:21;;;;;;;4.60;3.25;;;;;;;18.10;56.41;102054.34;5085590;28;20048;-68
2022/08/09 00:26:47;;;;;;;5.10;3.45;;;;;;;17.97;57.24;102060.41;5083963;27;20056;-68
2022/08/09 00:29:14;;;;;;;6.43;3.20;;;;;;;18.10;56.95;102062.31;5084527;27;20044;-68
2022/08/09 00:31:40;;;;;;;4.82;3.17;;;;;;;18.18;56.90;102057.38;5086242;27;20044;-68
2022/08/09 00:34:08;;;;;;;4.40;3.30;;;;;;;18.39;55.93;102053.38;5082971;27;20133;-68
2022/08/09 00:36:34;;;;;;;5.30;3.05;;;;;;;18.38;56.49;102055.16;5095832;27;20040;-68
2022/08/09 00:39:01;;;;;;;9.00;4.20;;;;;;;18.45;55.90;102052.97;5082538;27;20044;-68
2022/08/09 00:41:27;;;;;;;4.38;2.78;;;;;;;18.47;55.80;102048.44;5087364;27;20113;-68
2022/08/09 00:43:53;;;;;;;5.05;3.13;;;;;;;18.28;56.53;102054.06;5089219;27;20040;-68
2022/08/09 00:46:20;;;;;;;6.50;3.13;;;;;;;18.38;56.62;102046.34;5088705;27;20416;-68
2022/08/09 00:48:47;;;;;;;8.73;3.58;;;;;;;18.39;56.46;102048.06;5066320;27;20045;-68
2022/08/09 00:51:16;;;;;;;7.53;3.50;;;;;;;18.50;56.27;102048.22;5080406;28;20059;-68
2022/08/09 00:53:43;;;;;;;10.80;3.63;;;;;;;18.56;56.08;102047.00;5080900;27;20048;-68
2022/08/09 00:56:10;;;;;;;6.70;3.63;;;;;;;18.51;56.09;102049.09;5087001;27;20048;-68
2022/08/09 00:58:36;;;;;;;5.18;3.38;;;;;;;18.51;56.04;102057.06;5089109;27;20048;-68
2022/08/09 01:01:10;;;;;;;5.65;3.40;;;;;;;18.53;56.04;102056.03;5088804;28;20051;-68
2022/08/09 01:03:48;;;;;;;7.22;3.30;;;;;;;18.35;56.86;102047.41;5088068;28;20105;-68
2022/08/09 01:06:24;;;;;;;4.82;3.40;;;;;;;18.26;57.16;102055.94;5087572;27;20475;-68
2022/08/09 01:08:58;;;;;;;9.98;4.07;;;;;;;18.11;57.39;102054.25;5078916;27;20070;-68
2022/08/09 01:11:39;;;;;;;5.88;3.70;;;;;;;18.21;57.07;102057.19;5087714;27;20491;-68
2022/08/09 01:14:12;;;;;;;5.45;3.65;;;;;;;18.05;57.88;102059.09;5074034;27;20053;-68
2022/08/09 01:16:40;;;;;;;4.88;3.33;;;;;;;17.91;58.31;102057.28;5077725;27;20052;-67
2022/08/09 01:19:18;;;;;;;6.43;3.90;;;;;;;18.04;58.11;102060.88;5085534;27;20044;-68
2022/08/09 01:21:58;;;;;;;8.88;3.85;;;;;;;17.95;58.73;102058.81;5086840;28;20067;-68
2022/08/09 01:24:37;;;;;;;7.13;3.72;;;;;;;18.11;58.63;102056.91;5086420;28;20036;-68
2022/08/09 01:27:07;;;;;;;15.65;4.22;;;;;;;18.02;59.66;102065.44;5087247;28;20040;-68
2022/08/09 01:29:41;;;;;;;8.82;4.10;;;;;;;17.77;60.38;102063.44;5086142;27;20052;-68
2022/08/09 01:32:11;;;;;;;6.15;3.50;;;;;;;18.00;59.88;102064.66;5088451;27;20044;-69
2022/08/09 01:34:40;;;;;;;6.25;4.03;;;;;;;18.20;59.73;102063.44;5088899;27;20052;-69
2022/08/09 01:37:10;;;;;;;5.82;3.38;;;;;;;18.11;60.48;102064.84;5087682;27;20561;-69
2022/08/09 01:39:39;;;;;;;10.88;4.97;;;;;;;18.23;60.10;102072.06;5085810;27;20453;-69
2022/08/09 01:42:08;;;;;;;8.57;4.00;;;;;;;18.11;60.19;102067.50;5088096;27;20048;-70
2022/08/09 01:44:35;;;;;;;7.20;3.92;;;;;;;18.10;60.62;102064.97;5086136;28;20048;-69
2022/08/09 01:47:04;;;;;;;6.50;3.95;;;;;;;18.22;60.47;102065.03;5074078;28;20049;-69
2022/08/09 01:49:33;;;;;;;5.50;3.80;;;;;;;18.15;60.73;102068.16;5065805;27;20094;-69
2022/08/09 01:52:04;;;;;;;9.13;5.35;;;;;;;18.05;60.71;102067.03;5079279;27;20044;-69
2022/08/09 01:54:32;;;;;;;7.22;4.10;;;;;;;18.36;60.27;102066.84;5076480;27;20036;-69
2022/08/09 01:57:02;;;;;;;8.43;4.07;;;;;;;18.52;59.89;102066.72;5077878;27;20479;-69
2022/08/09 01:59:32;;;;;;;9.77;3.60;;;;;;;18.59;59.87;102063.59;5085740;27;20415;-69
2022/08/09 02:02:00;;;;;;;7.05;4.05;;;;;;;18.45;60.37;102066.25;5087759;28;20040;-68
2022/08/09 02:04:27;;;;;;;6.28;4.00;;;;;;;18.42;60.46;102064.66;5084161;28;20105;-69
2022/08/09 02:07:08;;;;;;;7.43;4.22;;;;;;;18.14;61.35;102072.66;5086965;28;20109;-69
2022/08/09 02:09:37;;;;;;;13.20;3.90;;;;;;;18.40;60.67;102079.81;5085116;27;20047;-68
2022/08/09 02:12:07;;;;;;;8.75;4.00;;;;;;;18.45;60.75;102068.91;5087304;27;20046;-68
2022/08/09 02:14:37;;;;;;;11.02;4.55;;;;;;;18.61;60.12;102068.81;5089155;27;20109;-68
2022/08/09 02:17:05;;;;;;;6.70;3.83;;;;;;;18.65;60.25;102078.31;5085552;27;20047;-69
2022/08/09 02:19:31;;;;;;;8.00;4.40;;;;;;;18.53;61.03;102079.06;5085582;27;20042;-68
2022/08/09 02:22:03;;;;;;;5.70;3.60;;;;;;;18.67;60.60;102076.38;5087522;27;20089;-69
2022/08/09 02:24:34;;;;;;;6.05;3.97;;;;;;;18.48;60.77;102082.84;5078543;27;20105;-69
2022/08/09 02:27:05;;;;;;;6.13;3.45;;;;;;;18.49;60.52;102086.34;5085696;27;20054;-69
2022/08/09 02:29:37;;;;;;;5.45;3.55;;;;;;;18.24;61.10;102084.41;5084877;27;20125;-68
2022/08/09 02:32:05;;;;;;;;;;;;;;;17.87;62.61;102083.16;5086829;28;20052;-68
2022/08/09 02:34:33;;;;;;;8.13;3.97;;;;;;;17.89;62.73;102083.03;5085276;27;20333;-68
2022/08/09 02:37:03;;;;;;;7.03;4.00;;;;;;;18.19;61.87;102078.50;5085371;27;20093;-68
2022/08/09 02:39:34;;;;;;;5.88;3.33;;;;;;;18.21;61.65;102079.28;5089474;27;20044;-68
2022/08/09 02:42:03;;;;;;;9.98;4.53;;;;;;;17.83;62.58;102086.09;5085451;27;20090;-68
2022/08/09 02:44:35;;;;;;;9.68;3.83;;;;;;;18.03;62.28;102088.38;5085825;27;20071;-67
2022/08/09 02:47:06;;;;;;;7.22;3.97;;;;;;;18.03;62.48;102085.75;5085494;28;20040;-67
2022/08/09 02:49:36;;;;;;;6.30;3.43;;;;;;;18.00;62.66;102091.22;5069504;28;20461;-67
2022/08/09 02:52:05;;;;;;;8.35;4.28;;;;;;;18.12;62.10;102085.16;5079926;27;20085;-67
2022/08/09 02:54:34;;;;;;;7.18;3.70;;;;;;;18.25;61.35;102080.81;5107147;27;20100;-67
2022/08/09 02:57:03;;;;;;;6.00;3.88;;;;;;;18.22;61.45;102086.28;5082172;28;20044;-67
2022/08/09 02:59:33;;;;;;;9.55;4.35;;;;;;;17.99;61.81;102085.06;5067068;27;20102;-68
2022/08/09 03:02:01;;;;;;;10.50;4.25;;;;;;;17.77;62.66;102079.38;5072976;28;20147;-67
2022/08/09 03:04:31;;;;;;;8.18;4.50;;;;;;;17.77;62.90;102087.31;5089634;28;20093;-67
2022/08/09 03:07:01;;;;;;;5.30;4.00;;;;;;;18.06;62.49;102079.38;5102970;27;20048;-67
2022/08/09 03:09:28;;;;;;;7.63;3.83;;;;;;;18.01;62.93;102090.28;5094686;27;20431;-67
2022/08/09 03:11:56;;;;;;;9.90;4.13;;;;;;;17.89;63.09;102085.69;5104407;27;20516;-67
2022/08/09 03:14:24;;;;;;;5.20;3.67;;;;;;;17.86;63.07;102091.19;5105853;27;20108;-68
2022/08/09 03:16:52;;;;;;;6.93;4.28;;;;;;;17.84;63.28;102090.47;5100325;27;20050;-67
2022/08/09 03:19:20;;;;;;;6.38;3.90;;;;;;;17.83;63.13;102096.69;5065188;28;20049;-67
2022/08/09 03:21:51;;;;;;;17.50;4.22;;;;;;;17.77;63.34;102095.28;5073997;27;20483;-67
2022/08/09 03:24:18;;;;;;;8.55;4.35;;;;;;;17.85;63.50;102092.13;5085770;27;20101;-67
2022/08/09 03:26:47;;;;;;;7.18;4.10;;;;;;;17.88;63.89;102094.63;5085162;27;20040;-67
2022/08/09 03:29:14;;;;;;;11.43;3.83;;;;;;;17.89;64.01;102107.78;5083386;27;20050;-68
2022/08/09 03:31:41;;;;;;;5.93;3.83;;;;;;;17.86;64.33;102101.81;5085966;28;20483;-69
2022/08/09 03:34:10;;;;;;;5.82;4.03;;;;;;;17.60;65.32;102105.16;5086285;27;20044;-69
2022/08/09 03:36:36;;;;;;;6.25;3.78;;;;;;;17.69;64.92;102096.69;5083582;27;20044;-69
2022/08/09 03:39:04;;;;;;;7.82;4.97;;;;;;;17.58;65.90;102099.97;5085332;27;20048;-68
2022/08/09 03:41:31;;;;;;;5.88;3.70;;;;;;;17.91;64.77;102107.72;5086226;27;20423;-69
2022/08/09 03:43:57;;;;;;;6.95;3.72;;;;;;;17.93;64.84;102111.09;5083889;27;20093;-69
2022/08/09 03:46:23;;;;;;;7.13;3.92;;;;;;;17.98;64.88;102109.03;5086625;27;20496;-69
2022/08/09 03:48:54;;;;;;;10.23;4.05;;;;;;;18.09;64.04;102106.59;5064757;27;20091;-68
2022/08/09 03:51:22;;;;;;;6.18;3.80;;;;;;;18.20;63.93;102106.78;5080358;28;20051;-68
2022/08/09 03:53:49;;;;;;;6.30;3.80;;;;;;;18.05;63.99;102107.72;5086301;28;20093;-68
2022/08/09 03:56:17;;;;;;;7.32;4.05;;;;;;;17.97;64.39;102112.63;5076968;28;20044;-69
2022/08/09 03:58:44;;;;;;;7.65;4.00;;;;;;;18.05;63.88;102101.56;5069181;28;20117;-68
2022/08/09 04:01:11;;;;;;;8.10;4.22;;;;;;;18.00;64.25;102113.28;5079865;27;20105;-68
2022/08/09 04:03:38;;;;;;;6.90;4.00;;;;;;;18.05;64.20;102114.81;5077135;28;20748;-68
2022/08/09 04:06:05;;;;;;;8.55;5.00;;;;;;;18.33;63.07;102110.34;5069841;28;20068;-69
2022/08/09 04:08:32;;;;;;;6.95;3.65;;;;;;;18.15;63.18;102110.66;5084646;27;20044;-68
2022/08/09 04:10:58;;;;;;;10.75;4.13;;;;;;;18.13;63.31;102117.88;5084164;27;20048;-69
2022/08/09 04:13:26;;;;;;;4.90;3.58;;;;;;;17.87;64.29;102122.09;5083406;27;20048;-68
2022/08/09 04:15:52;;;;;;;9.27;4.28;;;;;;;17.96;64.39;102117.09;5084487;27;20044;-69
2022/08/09 04:18:19;;;;;;;6.22;4.00;;;;;;;18.00;64.55;102128.38;5100643;27;20689;-68
2022/08/09 04:20:46;;;;;;;8.52;4.03;;;;;;;18.08;64.13;102117.28;5103069;27;20047;-68
2022/08/09 04:23:12;;;;;;;9.07;3.92;;;;;;;18.32;63.73;102121.09;5104939;27;20047;-68
2022/08/09 04:25:39;;;;;;;5.95;3.83;;;;;;;18.08;64.21;102125.25;5105488;27;20047;-68
2022/08/09 04:28:05;;;;;;;5.45;3.40;;;;;;;18.14;63.83;102122.22;5093541;27;20411;-68
2022/08/09 04:30:33;;;;;;;14.75;6.40;;;;;;;18.13;64.16;102118.72;5064008;28;20070;-69
2022/08/09 04:33:00;;;;;;;7.82;4.05;;;;;;;18.32;63.18;102123.75;5067541;27;20037;-68
2022/08/09 04:35:26;;;;;;;5.65;3.67;;;;;;;18.26;63.82;102124.09;5080631;27;20098;-68
2022/08/09 04:37:53;;;;;;;7.53;3.70;;;;;;;18.27;63.29;102126.69;5084304;27;20457;-69
2022/08/09 04:40:19;;;;;;;5.50;3.63;;;;;;;18.28;63.81;102123.09;5083706;27;20090;-69
2022/08/09 04:42:46;;;;;;;6.38;3.88;;;;;;;18.51;62.73;102120.81;5081132;27;20044;-69
2022/08/09 04:45:12;;;;;;;7.80;3.90;;;;;;;18.30;63.49;102130.94;5090086;27;20092;-69
2022/08/09 04:47:40;;;;;;;7.47;3.92;;;;;;;18.16;64.79;102136.25;5104448;27;20044;-69
2022/08/09 04:50:07;;;;;;;10.52;4.90;;;;;;;18.31;64.45;102138.81;5101557;27;20121;-70
2022/08/09 04:52:33;;;;;;;4.72;3.28;;;;;;;18.43;63.70;102138.06;5105370;27;20040;-69
2022/08/09 04:55:01;;;;;;;6.25;4.25;;;;;;;18.70;63.37;102134.66;5104382;27;20040;-69
2022/08/09 04:57:28;;;;;;;10.90;3.70;;;;;;;18.71;63.17;102139.84;5103222;27;20522;-69
2022/08/09 04:59:55;;;;;;;10.82;4.10;;;;;;;18.94;62.44;102135.75;5074246;28;20545;-69
2022/08/09 05:02:23;;;;;;;9.20;4.13;;;;;;;19.17;62.14;102143.06;5085214;28;20044;-68
2022/08/09 05:04:51;;;;;;;8.30;3.78;;;;;;;19.24;61.50;102135.53;5081564;28;20066;-68
2022/08/09 05:07:18;;;;;;;6.40;3.67;;;;;;;19.39;61.31;102147.84;5088234;27;20545;-68
2022/08/09 05:09:45;;;;;;;6.28;3.97;;;;;;;19.51;60.91;102149.69;5083371;27;20052;-68
2022/08/09 05:12:11;;;;;;;6.28;3.80;;;;;;;19.51;60.51;102151.53;5083025;27;20043;-68
2022/08/09 05:14:37;;;;;;;4.93;3.50;;;;;;;19.76;59.75;102148.91;5084112;27;20097;-68
2022/08/09 05:17:04;;;;;;;6.53;3.38;;;;;;;19.74;60.10;102151.66;5084424;27;20071;-68
2022/08/09 05:19:30;;;;;;;7.72;3.95;;;;;;;19.67;60.28;102147.72;5083120;27;20054;-67
2022/08/09 05:21:58;;;;;;;8.15;3.35;;;;;;;19.70;59.75;102154.63;5084391;27;20044;-68
2022/08/09 05:24:25;;;;;;;12.82;3.97;;;;;;;19.79;59.46;102154.03;5083423;27;20048;-68
2022/08/09 05:26:52;;;;;;;11.35;3.30;;;;;;;19.75;59.90;102153.38;5083913;27;20063;-68
2022/08/09 05:29:19;;;;;;;6.28;3.72;;;;;;;19.84;59.84;102160.72;5076800;27;20048;-68
2022/08/09 05:31:46;;;;;;;4.50;3.55;;;;;;;19.96;59.47;102152.84;5082667;28;20047;-68
2022/08/09 05:34:13;;;;;;;8.30;3.85;;;;;;;19.99;59.74;102155.31;5086473;28;20050;-68
2022/08/09 05:36:39;;;;;;;5.32;3.30;;;;;;;20.19;58.53;102158.31;5089067;28;20478;-69
2022/08/09 05:39:07;;;;;;;10.90;3.95;;;;;;;20.26;58.40;102166.72;5086392;28;20048;-69
2022/08/09 05:41:33;;;;;;;9.30;3.80;;;;;;;20.11;58.72;102163.31;5087689;28;20079;-69
2022/08/09 05:43:59;;;;;;;7.03;3.67;;;;;;;20.10;58.82;102156.28;5092240;27;20455;-69
2022/08/09 05:46:26;;;;;;;6.68;4.05;;;;;;;20.53;58.18;102159.50;5094654;27;20074;-69
2022/08/09 05:48:52;;;;;;;7.75;3.35;;;;;;;20.54;57.07;102176.34;5087100;27;20089;-69
2022/08/09 05:51:19;;;;;;;5.40;3.50;;;;;;;20.77;57.27;102167.53;5087730;28;20059;-69
2022/08/09 05:53:47;;;;;;;5.35;3.90;;;;;;;20.85;57.05;102173.16;5087159;28;20051;-68
2022/08/09 05:56:14;;;;;;;6.05;3.47;;;;;;;20.88;56.78;102178.28;5054605;28;20071;-69
2022/08/09 05:58:41;;;;;;;5.35;3.58;;;;;;;20.53;57.11;102185.28;5085328;28;20434;-69
2022/08/09 06:01:10;;;;;;;9.90;3.97;;;;;;;20.55;56.66;102178.88;5069101;28;20037;-69
2022/08/09 06:03:36;;;;;;;7.68;3.60;;;;;;;20.55;57.80;102176.22;5073564;27;20453;-69
2022/08/09 06:06:03;;;;;;;6.60;3.72;;;;;;;20.71;57.34;102181.31;5087247;27;20051;-69
2022/08/09 06:08:29;;;;;;;8.80;3.50;;;;;;;21.02;56.89;102186.16;5086681;27;20479;-69
2022/08/09 06:10:56;;;;;;;6.20;3.25;;;;;;;21.36;55.91;102190.72;5086229;27;20105;-69
2022/08/09 06:13:25;;;;;;;6.35;3.67;;;;;;;21.22;55.19;102184.72;5092070;27;20052;-69
2022/08/09 06:15:52;;;;;;;8.05;3.55;;;;;;;21.45;55.67;102177.66;5106118;27;20490;-69
2022/08/09 06:18:19;;;;;;;11.23;3.85;;;;;;;21.47;54.33;102183.75;5106366;27;20050;-69
2022/08/09 06:20:46;;;;;;;11.48;3.63;;;;;;;21.45;55.36;102188.34;5106626;27;20043;-69
2022/08/09 06:23:12;;;;;;;12.10;3.50;;;;;;;21.51;55.38;102190.53;5106221;27;20096;-68
2022/08/09 06:25:38;;;;;;;6.53;3.65;;;;;;;21.74;55.47;102187.00;5105709;27;20043;-69
2022/08/09 06:28:06;;;;;;;6.20;3.42;;;;;;;21.84;54.49;102196.00;5094792;27;20059;-69
2022/08/09 06:30:34;;;;;;;6.85;3.53;;;;;;;21.94;54.12;102202.41;5083439;27;20055;-69
2022/08/09 06:33:00;;;;;;;5.70;3.25;;;;;;;21.68;54.06;102199.00;5085549;28;20572;-68
2022/08/09 06:35:27;;;;;;;6.75;3.40;;;;;;;21.60;53.92;102208.56;5085925;27;20047;-68
2022/08/09 06:37:53;;;;;;;6.20;3.53;;;;;;;21.77;53.72;102208.97;5085773;27;20040;-68
2022/08/09 06:40:20;;;;;;;6.82;3.20;;;;;;;21.91;53.36;102212.47;5086255;27;20052;-68
2022/08/09 06:42:46;;;;;;;11.75;3.78;;;;;;;22.30;52.83;102212.94;5075588;27;20048;-68
2022/08/09 06:45:13;;;;;;;5.32;3.10;;;;;;;22.45;51.63;102220.72;5075497;27;20044;-68
2022/08/09 06:47:40;;;;;;;4.93;3.50;;;;;;;22.62;51.48;102218.41;5087058;27;20040;-68
2022/08/09 06:50:08;;;;;;;7.55;3.38;;;;;;;22.92;51.22;102227.66;5085041;27;20094;-68
2022/08/09 06:52:34;;;;;;;8.23;3.38;;;;;;;22.63;51.44;102219.25;5093624;27;20097;-68
2022/08/09 06:55:01;;;;;;;7.32;3.60;;;;;;;22.67;51.37;102221.63;5107823;27;20047;-68
2022/08/09 06:57:27;;;;;;;4.57;3.05;;;;;;;22.66;51.13;102225.22;5105694;27;20101;-69
2022/08/09 06:59:53;;;;;;;5.35;3.17;;;;;;;23.07;50.22;102226.44;5068438;28;20041;-68
2022/08/09 07:02:20;;;;;;;10.40;3.47;;;;;;;23.15;50.58;102206.13;5069952;28;20044;-68
2022/08/09 07:04:47;;;;;;;8.00;3.50;;;;;;;23.38;49.81;102211.41;5085212;28;20372;-68
2022/08/09 07:07:14;;;;;;;5.50;3.10;;;;;;;23.81;48.91;102211.38;5084965;27;20492;-68
2022/08/09 07:09:41;;;;;;;9.43;3.35;;;;;;;23.77;48.08;102214.34;5086051;27;20135;-68
2022/08/09 07:12:07;;;;;;;6.05;4.07;;;;;;;24.05;47.35;102207.50;5086081;27;20039;-68
2022/08/09 07:14:34;;;;;;;6.80;3.50;;;;;;;24.90;48.88;102210.81;5071967;27;20097;-73
2022/08/09 07:17:00;;;;;;;6.47;3.00;;;;;;;25.58;45.55;102212.63;5073603;27;20052;-74
2022/08/09 07:19:26;;;;;;;5.60;3.47;;;;;;;25.08;45.78;102217.22;5083613;28;20564;-74
2022/08/09 07:21:54;;;;;;;6.30;3.00;;;;;;;25.90;45.31;102225.81;5085979;28;20492;-73
2022/08/09 07:24:20;;;;;;;6.32;3.38;;;;;;;24.95;45.44;102219.28;5087404;28;20044;-74
2022/08/09 07:26:47;;;;;;;6.93;3.30;;;;;;;25.00;46.22;102221.56;5085224;28;20078;-73
2022/08/09 07:29:13;;;;;;;7.00;3.20;;;;;;;25.89;44.96;102224.09;5076976;27;20036;-74
2022/08/09 07:31:40;;;;;;;6.25;3.25;;;;;;;26.64;43.38;102225.94;5086538;28;20052;-74
2022/08/09 07:34:07;;;;;;;5.47;3.10;;;;;;;27.67;43.89;102213.03;5084779;27;20097;-74
2022/08/09 07:36:34;;;;;;;7.97;3.38;;;;;;;27.74;41.03;102210.53;5085538;27;20044;-74
2022/08/09 07:39:04;;;;;;;4.65;3.08;;;;;;;28.01;39.54;102219.34;5092739;27;20097;-75
2022/08/09 07:41:30;;;;;;;6.57;3.05;;;;;;;28.16;38.53;102218.84;5085764;27;20052;-73
2022/08/09 07:43:56;;;;;;;4.93;3.03;;;;;;;28.41;37.88;102215.28;5084259;27;20051;-74
2022/08/09 07:46:23;;;;;;;7.68;2.88;;;;;;;27.80;38.46;102209.91;5087161;27;20389;-74
2022/08/09 07:48:49;;;;;;;5.57;3.13;;;;;;;27.63;39.37;102214.31;5084410;28;20093;-74
2022/08/09 07:51:16;;;;;;;11.63;3.92;;;;;;;28.16;39.55;102216.97;5084948;28;20051;-74
2022/08/09 07:53:42;;;;;;;11.57;3.10;;;;;;;28.32;38.86;102216.22;5085555;27;20039;-73
2022/08/09 07:56:10;;;;;;;8.18;2.85;;;;;;;28.20;38.16;102209.38;5086092;27;20043;-75
2022/08/09 07:58:36;;;;;;;6.25;3.08;;;;;;;27.83;38.86;102213.13;5084712;27;20117;-72
2022/08/09 08:01:03;;;;;;;6.65;2.78;;;;;;;27.53;39.12;102213.56;5093480;27;20056;-74
2022/08/09 08:03:29;;;;;;;8.65;2.90;;;;;;;27.83;38.40;102209.59;5084661;27;20453;-73
2022/08/09 08:05:56;;;;;;;9.50;2.90;;;;;;;28.21;36.98;102208.41;5084628;27;20063;-73
2022/08/09 08:08:23;;;;;;;7.20;3.10;;;;;;;28.64;38.71;102208.31;5086347;27;20048;-74
2022/08/09 08:10:49;;;;;;;8.30;3.47;;;;;;;29.08;37.10;102221.69;5083502;28;20120;-72
2022/08/09 08:13:17;;;;;;;7.10;2.80;;;;;;;29.08;36.47;102205.47;5084408;27;20100;-72
2022/08/09 08:15:44;;;;;;;12.13;2.65;;;;;;;29.04;37.27;102204.97;5086622;27;20048;-72
2022/08/09 08:18:10;;;;;;;9.57;2.95;;;;;;;29.28;35.60;102209.59;5079285;27;20122;-75
2022/08/09 08:20:37;;;;;;;5.53;2.58;;;;;;;29.84;35.99;102198.84;5072611;28;20044;-74
2022/08/09 08:23:05;;;;;;;3.80;2.70;;;;;;;29.74;37.76;102200.88;5071001;28;20192;-73
2022/08/09 08:25:32;;;;;;;4.32;2.83;;;;;;;29.48;34.65;102194.78;5062390;28;20106;-73
2022/08/09 08:27:58;;;;;;;7.07;2.92;;;;;;;30.25;36.38;102201.53;5064931;28;20630;-73
2022/08/09 08:30:26;;;;;;;7.10;2.58;;;;;;;30.88;33.36;102210.47;5064759;28;20097;-72
2022/08/09 08:32:52;;;;;;;5.25;2.67;;;;;;;31.54;32.00;102200.97;5062948;28;20446;-71
2022/08/09 08:35:19;;;;;;;6.90;2.60;;;;;;;32.20;31.34;102199.38;5064638;28;20416;-71
2022/08/09 08:37:45;;;;;;;9.93;2.65;;;;;;;32.55;30.63;102197.81;5064708;28;20451;-68
2022/08/09 08:40:13;;;;;;;9.85;2.70;;;;;;;32.67;30.76;102202.59;5061966;28;20045;-68
2022/08/09 08:42:40;;;;;;;4.53;2.40;;;;;;;32.68;30.90;102209.72;5062558;28;20052;-67
2022/08/09 08:45:08;;;;;;;7.18;2.40;;;;;;;31.32;30.63;102213.47;5065581;28;20496;-67
2022/08/09 08:47:39;;;;;;;6.13;2.65;;;;;;;31.10;30.77;102210.72;5053592;28;20420;-67
2022/08/09 08:50:06;;;;;;;3.67;2.42;;;;;;;31.61;30.21;102203.81;5042991;28;20123;-67
2022/08/09 08:52:33;;;;;;;7.97;2.60;;;;;;;30.90;31.17;102215.69;5054846;28;20049;-68
2022/08/09 08:55:00;;;;;;;5.22;2.40;;;;;;;31.61;31.88;102223.63;5062949;28;20040;-67
2022/08/09 08:57:28;;;;;;;5.43;2.53;;;;;;;31.96;29.62;102210.47;5062798;28;20060;-67
2022/08/09 08:59:55;;;;;;;10.25;2.40;;;;;;;31.05;31.55;102218.53;5064721;28;20045;-67
2022/08/09 09:02:25;;;;;;;9.05;2.60;;;;;;;31.75;29.49;102216.56;5065419;28;20106;-67
2022/08/09 09:04:55;;;;;;;6.05;2.35;;;;;;;31.81;28.99;102205.84;5067325;28;20552;-68
2022/08/09 09:07:23;;;;;;;5.68;2.60;;;;;;;32.42;30.14;102203.03;5060959;28;20057;-67
2022/08/09 09:09:51;;;;;;;5.57;2.65;;;;;;;32.27;29.08;102200.31;5055866;28;20048;-67
2022/08/09 09:12:19;;;;;;;5.35;2.53;;;;;;;32.48;28.76;102200.44;5067579;28;20044;-68
2022/08/09 09:14:47;;;;;;;4.22;2.20;;;;;;;32.25;29.23;102196.97;5065941;28;20121;-68
2022/08/09 09:17:14;;;;;;;5.75;1.88;;;;;;;32.65;28.22;102198.38;5068546;28;20072;-67
2022/08/09 09:19:41;;;;;;;4.43;2.25;;;;;;;32.10;28.28;102198.81;5068428;28;20052;-67
2022/08/09 09:22:12;;;;;;;3.22;2.45;;;;;;;32.73;28.75;102207.28;5080516;28;20423;-67
2022/08/09 09:24:40;;;;;;;3.42;2.28;;;;;;;32.00;28.98;102198.22;5087389;28;20447;-67
2022/08/09 09:27:08;;;;;;;4.30;2.45;;;;;;;32.36;29.63;102196.50;5089081;28;20108;-68
2022/08/09 09:29:37;;;;;;;8.77;2.40;;;;;;;32.24;29.35;102203.41;5085584;27;20499;-68
2022/08/09 09:32:04;;;;;;;4.55;2.45;;;;;;;32.77;27.97;102202.31;5088657;28;20048;-67
2022/08/09 09:34:31;;;;;;;5.18;2.47;;;;;;;33.11;26.74;102196.25;5092312;27;20047;-68
2022/08/09 09:36:59;;;;;;;3.35;2.45;;;;;;;32.21;27.30;102193.78;5105691;27;20127;-67
2022/08/09 09:39:28;;;;;;;5.65;2.40;;;;;;;32.74;28.21;102200.00;5107948;27;20047;-66
2022/08/09 09:41:55;;;;;;;3.08;2.35;;;;;;;33.08;27.69;102193.88;5107062;27;20188;-68
2022/08/09 09:44:26;;;;;;;10.73;2.70;;;;;;;33.54;25.89;102197.97;5085252;27;20129;-67
2022/08/09 09:46:56;;;;;;;4.13;2.70;;;;;;;33.94;28.60;102198.34;5087253;28;20066;-67
2022/08/09 09:49:24;;;;;;;5.43;2.63;;;;;;;33.65;24.70;102191.19;5086528;28;20423;-67
2022/08/09 09:52:01;;;;;;;7.95;2.30;;;;;;;34.10;27.13;102198.06;5097259;27;20487;-67
2022/08/09 09:54:36;;;;;;;2.97;2.00;;;;;;;33.93;26.39;102202.09;5075511;27;20044;-68
2022/08/09 09:57:14;;;;;;;3.75;2.22;;;;;;;33.84;24.93;102190.53;5068221;28;20470;-67
2022/08/09 09:59:40;;;;;;;6.88;2.28;;;;;;;33.15;26.18;102184.81;5066149;28;20044;-67
2022/08/09 10:02:08;;;;;;;6.15;2.50;;;;;;;33.79;27.33;102194.88;5081629;28;20066;-66
2022/08/09 10:04:34;;;;;;;7.40;2.38;;;;;;;34.43;26.16;102190.97;5093706;27;20036;-67
2022/08/09 10:07:00;;;;;;;6.97;2.25;;;;;;;34.52;23.88;102192.47;5085455;28;20460;-67
2022/08/09 10:09:45;;;;;;;6.07;2.42;;;;;;;34.09;24.84;102188.19;5086236;27;20695;-67
2022/08/09 10:12:11;;;;;;;3.78;2.30;;;;;;;34.05;25.58;102186.91;5065487;28;20059;-68
2022/08/09 10:14:38;;;;;;;5.07;2.63;;;;;;;34.13;25.41;102190.38;5065515;28;20672;-67
2022/08/09 10:17:11;;;;;;;4.25;2.30;;;;;;;33.78;25.39;102182.31;5067638;28;20106;-67
2022/08/09 10:19:37;;;;;;;5.40;2.40;;;;;;;32.79;25.37;102187.50;5090475;27;20051;-68
2022/08/09 10:22:04;;;;;;;4.30;1.85;;;;;;;32.94;25.50;102183.91;5085952;27;20105;-68
2022/08/09 10:24:32;;;;;;;4.72;2.40;;;;;;;32.73;25.57;102191.00;5106305;27;20100;-68
2022/08/09 10:26:59;;;;;;;8.30;2.67;;;;;;;32.99;25.40;102186.91;5094004;28;20044;-68
2022/08/09 10:29:26;;;;;;;3.38;2.20;;;;;;;32.81;24.20;102184.59;5070956;28;20052;-68
2022/08/09 10:31:53;;;;;;;2.55;2.10;;;;;;;33.29;25.41;102177.66;5087149;27;20044;-68
2022/08/09 10:34:20;;;;;;;4.10;2.00;;;;;;;33.49;25.57;102186.84;5087559;28;20101;-68
2022/08/09 10:36:48;;;;;;;9.13;2.33;;;;;;;33.43;25.57;102178.63;5085699;28;20036;-68
2022/08/09 10:39:18;;;;;;;4.18;2.35;;;;;;;33.01;25.56;102182.94;5086335;28;20117;-68
2022/08/09 10:41:45;;;;;;;4.00;2.35;;;;;;;32.95;26.22;102181.00;5086767;28;20044;-68
2022/08/09 10:44:12;;;;;;;4.43;2.20;;;;;;;32.78;26.55;102179.53;5085618;28;20616;-68
2022/08/09 10:46:49;;;;;;;4.07;2.13;;;;;;;32.75;25.88;102178.03;5086235;27;20090;-68
2022/08/09 10:49:22;;;;;;;4.65;2.00;;;;;;;32.96;25.16;102181.84;5083939;27;20063;-67
2022/08/09 10:51:55;;;;;;;3.45;2.22;;;;;;;33.37;24.71;102182.13;5086994;27;20070;-68
2022/08/09 10:54:23;;;;;;;7.13;2.58;;;;;;;33.95;25.36;102181.81;5091340;28;20051;-68
2022/08/09 10:57:06;;;;;;;6.00;2.00;;;;;;;34.00;24.37;102183.97;5090696;27;20072;-68
2022/08/09 10:59:32;;;;;;;2.78;2.15;;;;;;;33.50;24.56;102177.66;5079867;28;20051;-68
2022/08/09 11:01:59;;;;;;;2.88;2.30;;;;;;;33.94;24.42;102180.13;5084411;28;20040;-69
2022/08/09 11:04:27;;;;;;;8.32;2.33;;;;;;;34.12;24.27;102175.03;5086064;28;20120;-68
2022/08/09 11:07:29;;;;;;;5.90;1.95;;;;;;;34.83;24.07;102172.09;5086459;28;20097;-68
2022/08/09 11:09:56;;;;;;;6.30;2.38;;;;;;;35.21;22.50;102173.28;5056888;28;20044;-67
2022/08/09 11:12:25;;;;;;;3.20;2.20;;;;;;;34.73;23.22;102172.50;5062867;28;20045;-67
2022/08/09 11:14:54;;;;;;;3.33;2.28;;;;;;;34.30;24.26;102162.81;5074331;28;20392;-68
2022/08/09 11:17:58;;;;;;;6.75;2.45;;;;;;;33.95;25.30;102170.94;5087039;28;20066;-68
2022/08/09 11:20:40;;;;;;;5.03;1.92;;;;;;;34.18;24.61;102160.63;5063481;27;20049;-68
2022/08/09 11:23:07;;;;;;;5.75;2.15;;;;;;;34.03;24.92;102159.06;5084964;27;20044;-68
2022/08/09 11:25:36;;;;;;;5.03;2.10;;;;;;;34.64;23.51;102168.25;5086342;27;20557;-68
2022/08/09 11:28:34;;;;;;;4.95;1.90;;;;;;;34.96;22.04;102153.09;5064344;28;20045;-68
2022/08/09 11:31:01;;;;;;;3.92;2.30;;;;;;;34.63;23.32;102161.09;5076419;28;20549;-68